Search for airport 
image banner adimage banner adimage banner ad
image banner ad

S74 - Lost Isle

Located in Stockton, United States

ICAO - S74, IATA -

Data provided by Airmate  

General information

Coordinates: N38°0'15" W121°27'24"
Elevation is feet MSL.
Magnetic variation is 16° East
View others Airports in California

Operational data

Special qualification required
Current time UTC:
Current local time:
Weather at : KSCK - Stockton Metropolitan ( 23 km )
METAR: KSCK 221155Z AUTO 35005KT 10SM CLR 14/12 A2988 RMK AO2 SLP118 T01390117 10167 20139 53003
TAF: KSCK 221123Z 2212/2312 32008KT P6SM SKC FM222300 30013KT P6SM SKC FM230400 32009KT P6SM SKC
View NOTAMs / SUP AIP / TFR affecting this airport [VIEW]
Communications frequencies: [VIEW]

Runways:

RWY identifierQFULength (ft)Width (ft)SurfaceLDA (ft)
NW4000300WATER
SE4000300WATER

Airport contact information

Address: Stockton United States

Satellite view of S74